Sierra Nevada Aquatic Research Lab (SNARL) Reserve, California Weather observations

Data are for 10 minute period ending at time listed.
 Day   Time   Solar   Ave.   Ave.  Ave.  Vector  Max.   Baro.   Total    
  of    of     Rad.   Air    Rel.  Wind   Wind   Wind  Press.  Precip.   
Year   Day            Temp.  Hum.  Speed  Dir.   Gust                    
2015   (PST)  Kw/m2    F      %     mph   deg.    mph    mb.     in.     
-------------------------------------------------------------------------
 213    2:10   0.00   46.7    76    1.8   302     3.7   789.5    0.00 
 213    2:20   0.00   47.2    75    0.7   347     1.5   789.5    0.00 
 213    2:30   0.00   47.4    75    0.5   114     1.8   789.5    0.00 
 213    2:40   0.00   46.9    73    1.2   213     2.7   789.5    0.00 
 213    2:50   0.00   46.5    76    1.2   226     1.9   789.4    0.00 
 213    3:00   0.00   46.8    76    0.9   259     2.0   789.3    0.00 
 213    3:10   0.00   46.1    76    0.2   229     1.8   789.4    0.00 
 213    3:20   0.00   46.0    76    1.5   230     2.5   789.4    0.00 
 213    3:30   0.00   47.0    77    2.7   259     3.9   789.3    0.00 
 213    3:40   0.00   47.8    76    2.0   322     3.8   789.3    0.00 
 213    3:50   0.00   46.1    75    0.5   306     2.8   789.2    0.00 
 213    4:00   0.00   45.9    77    1.7    39     2.9   789.3    0.00 
 213    4:10   0.00   45.6    77    1.1    89     2.6   789.3    0.00 
 213    4:20   0.00   45.2    78    1.3   239     3.0   789.4    0.00 
 213    4:30   0.00   45.5    77    2.4   203     3.5   789.5    0.00 
 213    4:40   0.00   45.8    78    1.4    84     3.2   789.5    0.00 
 213    4:50   0.00   45.7    77    0.2    81     1.9   789.6    0.00 
 213    5:00   0.00   45.8    77    1.9   195     3.4   789.7    0.00 
 213    5:10   0.00   45.2    78    3.8   230     4.7   789.7    0.00 
 213    5:20   0.01   45.4    79    1.0   269     3.2   789.7    0.00 
 213    5:30   0.02   45.6    81    2.7   302     5.0   789.8    0.00 
 213    5:40   0.04   47.7    74    2.7   294     4.2   790.0    0.00 
 213    5:50   0.11   49.3    72    1.3   303     3.1   790.0    0.00 
 213    6:00   0.13   52.1    67    2.3   327     3.4   790.0    0.00 
 213    6:10   0.17   54.1    64    1.7   297     3.7   790.0    0.00 
 213    6:20   0.21   58.5    58    0.5   310     1.8   789.9    0.00 
 213    6:30   0.24   62.5    52    0.9   348     2.1   789.9    0.00 
 213    6:40   0.24   62.2    51    2.0   348     3.8   789.9    0.00 
 213    6:50   0.26   63.5    48    0.3    21     1.5   789.9    0.00 
 213    7:00   0.29   65.7    47    0.8    16     2.3   790.0    0.00 
 213    7:10   0.33   65.8    46    1.7    45     3.1   790.0    0.00 
 213    7:20   0.31   65.9    48    2.0    66     4.2   790.2    0.00 
 213    7:30   0.32   65.5    49    2.0    56     3.7   790.3    0.00 
 213    7:40   0.41   67.0    46    0.5    21     1.9   790.3    0.00 
 213    7:50   0.48   69.2    44    1.3    56     4.2   790.2    0.00 
 213    8:00   0.52   69.4    44    2.6    62     4.6   790.2    0.00 
 213    8:10   0.56   70.5    42    2.4    62     4.2   790.3    0.00 
 213    8:20   0.59   71.5    41    2.2    53     5.3   790.4    0.00 
 213    8:30   0.62   72.0    41    3.4    54     5.8   790.3    0.00 
 213    8:40   0.59   73.0    39    2.5    67     4.8   790.3    0.00 
 213    8:50   0.68   74.0    38    2.7    67     5.2   790.3    0.00 
 213    9:00   0.71   75.4    35    2.5    73     4.7   790.3    0.00 
 213    9:10   0.74   76.0    33    3.2    58     7.2   790.2    0.00 
 213    9:20   0.76   76.7    32    3.6    98     7.8   790.1    0.00 
 213    9:30   0.79   77.2    32    2.7    34     6.1   790.0    0.00 
 213    9:40   0.81   77.5    31    4.8    72    10.7   790.0    0.00 
 213    9:50   0.84   77.3    31    5.1    79    11.3   789.9    0.00 
 213   10:00   0.86   77.8    31    4.0    75     8.6   789.8    0.00 
 213   10:10   0.88   78.1    31    6.7    77    15.3   789.8    0.00 
 213   10:20   0.92   79.1    30    7.7   104    14.0   789.7    0.00 
 213   10:30   0.95   79.6    29    2.9    78     8.7   789.6    0.00 
 213   10:40   0.96   79.6    29    6.0   106    11.4   789.5    0.00 
 213   10:50   1.01   80.1    28    5.2    42     9.3   789.4    0.00 
 213   11:00   0.76   80.4    28    5.7    80    12.0   789.2    0.00 
 213   11:10   0.68   79.0    28    3.1    71    11.2   789.2    0.00 
 213   11:20   0.70   79.4    27    5.3   138    12.8   789.1    0.00 
 213   11:30   0.99   81.0    26    6.4   105    12.3   789.0    0.00 
 213   11:40   1.08   81.9    27    7.3    75    14.9   788.8    0.00 
 213   11:50   0.89   82.2    25    6.5    97    15.5   788.7    0.00 
 213   12:00   1.12   81.6    25    8.8    91    16.7   788.7    0.00 
 213   12:10   1.00   81.7    24    6.1    98    14.0   788.5    0.00 
 213   12:20   1.00   82.0    24    7.3    96    14.5   788.4    0.00 
 213   12:30   0.51   82.1    25    7.7   115    13.7   788.3    0.00 
 213   12:40   0.98   80.9    27    6.8    93    15.1   788.1    0.00 
 213   12:50   1.06   82.0    25    7.0    59    15.8   787.9    0.00 
 213   13:00   0.88   82.1    26    5.4    33     9.5   787.7    0.00 
 213   13:10   0.17   81.1    26    4.1    61     9.2   787.7    0.00 
 213   13:20   0.12   78.8    26    9.3   104    13.5   787.7    0.00 
 213   13:30   0.10   77.5    29   12.7   146    28.1   787.9    0.00 
 213   13:40   0.12   73.4    37   16.6   181    26.6   787.9    0.00 
 213   13:50   0.22   72.5    44   11.3   199    19.5   787.9    0.00 
 213   14:00   0.48   71.9    52    8.4   231    11.6   787.7    0.00 
 213   14:10   0.77   76.6    41    7.1   237     9.6   787.6    0.00 
 213   14:20   0.29   77.2    37    6.2   226     8.2   787.5    0.00 
 213   14:30   0.23   76.3    40    6.3   211     9.1   787.4    0.00 
 213   14:40   0.20   76.0    40    4.3   289    11.6   787.4    0.00 
 213   14:50   0.10   74.1    40    7.3   273    12.0   787.5    0.00 
 213   15:00   0.06   72.7    40    8.2   277    12.0   787.4    0.00 
 213   15:10   0.03   71.9    42    5.6   283    10.3   787.5    0.00 
 213   15:20   0.02   70.6    46    5.6   284    13.2   787.7    0.00 
 213   15:30   0.01   69.9    47    8.2   286    11.5   787.8    0.00 
 213   15:40   0.01   69.9    47    6.3   273    12.6   787.9    0.00 
 213   15:50   0.01   69.9    46    3.0   232     8.8   788.1    0.00 
 213   16:00   0.01   69.9    45    8.0   267    12.1   788.3    0.00 
 213   16:10   0.00   69.8    45    7.1   278    13.2   788.3    0.00 
 213   16:20   0.00   69.9    44    7.0   275    11.6   788.3    0.00 
 213   16:30   0.00   69.4    46    5.8   257     9.6   788.4    0.00 
 213   16:40   0.00   69.2    46    4.5   247     9.1   788.5    0.00 
 213   16:50   0.00   69.0    44    4.5   278    12.9   788.7    0.00 
 213   17:00   0.00   68.6    45    7.8     8    15.8   789.0    0.00 
 213   17:10   0.00   67.2    50    4.3   310     9.5   789.6    0.01 
 213   17:20   0.00   62.7    59    8.8   262    33.5   790.4    0.12 
 213   17:30   0.00   57.8    71    5.7   103    12.0   790.2    0.03 
 213   17:40   0.01   56.5    77    7.2   279    13.7   789.5    0.01 
 213   17:50   0.01   56.6    80    5.0   246     8.8   789.3    0.00 
 213   18:00   0.01   56.0    86    5.6   269     8.3   789.8    0.01 
 213   18:10   0.01   56.2    86    8.7   267    15.5   790.5    0.00 
 213   18:20   0.01   56.6    84    8.0   271    15.3   790.9    0.00 
 213   18:30   0.01   56.7    83    7.9   258    16.1   791.1    0.00 
 213   18:40   0.00   56.8    82    8.5   257    14.4   791.2    0.00 
 213   18:50   0.00   56.5    83    6.9   264    11.5   791.2    0.00 
 213   19:00   0.00   56.3    82    6.7   276    11.9   791.5    0.00 
 213   19:10   0.00   56.0    82    6.6   262    11.6   791.4    0.00 
 213   19:20   0.00   56.2    80    8.4   257    13.4   791.4    0.00 
 213   19:30   0.00   55.9    80    7.7   266    13.7   791.4    0.00 
 213   19:40   0.00   55.5    82    8.7   272    15.3   791.5    0.00 
 213   19:50   0.00   55.7    79    8.8   274    14.5   791.7    0.00 
 213   20:00   0.00   55.5    78    9.2   264    15.9   791.9    0.00 
 213   20:10   0.00   55.2    78    8.3   268    13.1   792.0    0.00 
 213   20:20   0.00   55.0    78    9.1   270    13.9   791.9    0.00 
 213   20:30   0.00   54.7    79    9.7   274    15.1   791.9    0.00 
 213   20:40   0.00   54.7    78    9.6   276    13.6   792.0    0.00 
 213   20:50   0.00   54.7    76    9.6   276    15.3   792.0    0.00 
 213   21:00   0.00   54.4    77    9.3   265    14.2   791.9    0.00 
 213   21:10   0.00   54.3    76    6.4   281    13.2   791.8    0.00 
 213   21:20   0.00   53.9    79    4.8   258     9.9   791.6    0.00 
 213   21:30   0.00   54.1    77    7.4   252    11.3   791.3    0.00 
 213   21:40   0.00   54.1    77    8.7   242    12.2   790.7    0.00 
 213   21:50   0.00   53.8    78    5.2   304    10.9   790.3    0.00 
 213   22:00   0.00   53.8    77    7.8   292    12.9   790.2    0.00 
 213   22:10   0.00   53.3    78    5.0   264     8.6   790.1    0.00 
 213   22:20   0.00   53.2    78    4.8   268     9.3   790.1    0.00 
 213   22:30   0.00   53.2    78    2.6   255     5.6   790.0    0.00 
 213   22:40   0.00   52.6    81    2.0   240     4.6   790.0    0.00 
 213   22:50   0.00   51.9    82    5.3   244     8.6   789.8    0.00 
 213   23:00   0.00   52.8    78    8.2   245    13.0   789.6    0.00 
 213   23:10   0.00   53.3    75    7.2   257    11.9   789.3    0.00 
 213   23:20   0.00   54.7    70    7.7   256    14.0   789.1    0.00 
 213   23:30   0.00   54.6    70    6.2   270    11.3   788.9    0.00 
 213   23:40   0.00   55.4    66    9.4   275    14.0   788.7    0.00 
 213   23:50   0.00   56.2    63   10.0   271    16.3   788.5    0.00 
 214    0:00   0.00   56.2    64    8.0   271    13.5   788.3    0.00 
 214    0:10   0.00   55.8    64    8.0   266    12.1   788.0    0.00 
 214    0:20   0.00   56.2    63    7.4   246    11.8   787.7    0.00 
 214    0:30   0.00   56.4    63    7.6   231    11.7   787.5    0.00 
 214    0:40   0.00   55.7    64    6.3   219     9.9   787.2    0.00 
 214    0:50   0.00   55.9    63    6.5   237     9.6   787.1    0.00 
 214    1:00   0.00   54.7    69    4.3    19     9.0   787.2    0.00 
 214    1:10   0.00   52.6    78    2.0    45     6.7   787.2    0.00 
 214    1:20   0.00   50.6    82    1.7   101     4.4   787.2    0.00 
 214    1:30   0.00   49.4    86    3.8    67     8.4   787.2    0.00 
 214    1:40   0.00   48.9    87    3.5   216     5.9   787.3    0.00 
 214    1:50   0.00   48.1    89    3.8   215     6.3   787.4    0.00 
 214    2:00   0.00   47.8    88    1.6   216     3.1   787.4    0.00 

Return to SNARL Reserve graphs page.


Western Regional Climate Center,wrcc@dri.edu